Time;durP1;ratioP1;P1;durP2;ratioP2;P2;SDS_P1;SDS_P2;PMS_P1;PMS_P2;Temp;Humidity;BMP_temperature;BMP_pressure;BME280_temperature;BME280_humidity;BME280_pressure;Samples;Min_cycle;Max_cycle;Signal;HPM_P1;HPM_P2
2022/09/01 00:00:40;;;;;;;7.43;4.20;;;;;;;;;;5049046;28;20045;-60
2022/09/01 00:03:09;;;;;;;8.80;3.57;;;;;;;;;;5048211;28;20099;-60
2022/09/01 00:05:36;;;;;;;7.90;3.27;;;;;;;;;;5048828;28;20095;-60
2022/09/01 00:08:02;;;;;;;7.63;3.27;;;;;;;;;;5048449;28;20047;-60
2022/09/01 00:10:28;;;;;;;6.77;3.20;;;;;;;;;;5047011;28;20045;-60
2022/09/01 00:12:54;;;;;;;5.90;3.17;;;;;;;;;;5048181;28;20099;-60
2022/09/01 00:15:21;;;;;;;8.83;4.03;;;;;;;;;;5048487;28;20099;-60
2022/09/01 00:17:47;;;;;;;8.07;3.23;;;;;;;;;;5048446;28;20403;-60
2022/09/01 00:20:13;;;;;;;11.13;3.80;;;;;;;;;;5048789;28;20041;-60
2022/09/01 00:22:39;;;;;;;7.53;3.27;;;;;;;;;;5048839;28;20049;-60
2022/09/01 00:25:06;;;;;;;9.33;3.37;;;;;;;;;;5047988;28;20061;-60
2022/09/01 00:27:32;;;;;;;5.73;3.00;;;;;;;;;;5048220;28;20552;-60
2022/09/01 00:29:59;;;;;;;4.27;2.97;;;;;;;;;;5047011;28;20388;-60
2022/09/01 00:32:26;;;;;;;6.70;3.63;;;;;;;;;;5048553;28;20457;-61
2022/09/01 00:34:52;;;;;;;8.57;3.40;;;;;;;;;;5048864;28;20060;-61
2022/09/01 00:37:18;;;;;;;6.50;3.17;;;;;;;;;;5048098;28;20057;-60
2022/09/01 00:39:44;;;;;;;6.93;3.17;;;;;;;;;;5048086;28;20048;-61
2022/09/01 00:42:10;;;;;;;6.13;3.27;;;;;;;;;;5048631;28;20047;-60
2022/09/01 00:44:37;;;;;;;6.47;3.27;;;;;;;;;;5048336;28;20045;-60
2022/09/01 00:47:05;;;;;;;7.23;3.67;;;;;;;;;;5048304;28;20045;-60
2022/09/01 00:49:34;;;;;;;6.90;2.93;;;;;;;;;;5048360;28;20048;-61
2022/09/01 00:52:04;;;;;;;7.80;3.33;;;;;;;;;;5047944;28;20049;-60
2022/09/01 00:54:32;;;;;;;7.07;3.07;;;;;;;;;;5048459;28;20411;-60
2022/09/01 00:56:59;;;;;;;5.37;3.20;;;;;;;;;;5048421;28;20071;-60
2022/09/01 00:59:25;;;;;;;7.47;3.57;;;;;;;;;;5047860;28;20052;-60
2022/09/01 01:01:52;;;;;;;7.30;4.03;;;;;;;;;;5047812;28;20049;-61
2022/09/01 01:04:18;;;;;;;4.10;3.30;;;;;;;;;;5048846;28;20045;-60
2022/09/01 01:06:48;;;;;;;4.07;2.90;;;;;;;;;;5047783;28;20053;-60
2022/09/01 01:09:18;;;;;;;8.43;3.87;;;;;;;;;;5048058;28;20047;-60
2022/09/01 01:11:46;;;;;;;5.50;2.90;;;;;;;;;;5047954;28;20045;-60
2022/09/01 01:14:14;;;;;;;5.80;3.03;;;;;;;;;;5048048;28;20049;-60
2022/09/01 01:16:43;;;;;;;6.20;3.40;;;;;;;;;;5047708;28;20518;-60
2022/09/01 01:25:24;;;;;;;7.40;3.17;;;;;;;;;;5051407;28;20080;-60
2022/09/01 01:27:50;;;;;;;6.83;3.43;;;;;;;;;;5051390;28;20041;-60
2022/09/01 01:30:17;;;;;;;6.30;3.37;;;;;;;;;;5051476;28;20049;-60
2022/09/01 01:32:46;;;;;;;5.07;3.33;;;;;;;;;;5050840;28;20041;-60
2022/09/01 01:35:13;;;;;;;6.07;3.00;;;;;;;;;;5051288;28;20063;-60
2022/09/01 01:37:42;;;;;;;5.67;2.90;;;;;;;;;;5051060;28;20134;-60
2022/09/01 01:40:14;;;;;;;5.93;3.27;;;;;;;;;;5030950;28;20503;-59
2022/09/01 01:42:42;;;;;;;4.93;3.10;;;;;;;;;;5031466;28;20480;-60
2022/09/01 01:45:11;;;;;;;4.77;2.83;;;;;;;;;;5031789;28;20057;-60
2022/09/01 01:47:37;;;;;;;7.63;3.20;;;;;;;;;;5051108;28;20407;-60
2022/09/01 01:50:08;;;;;;;5.53;3.20;;;;;;;;;;5050994;28;20128;-60
2022/09/01 01:52:34;;;;;;;8.70;3.67;;;;;;;;;;5050534;28;20434;-60
2022/09/01 01:55:01;;;;;;;6.63;3.73;;;;;;;;;;5051260;28;20076;-60
2022/09/01 01:57:30;;;;;;;6.63;3.40;;;;;;;;;;5050743;28;20098;-60
2022/09/01 01:59:57;;;;;;;4.83;3.30;;;;;;;;;;5050471;28;20106;-60
2022/09/01 02:02:23;;;;;;;5.83;3.43;;;;;;;;;;5051026;28;20041;-60
2022/09/01 02:04:49;;;;;;;4.50;3.70;;;;;;;;;;5050906;28;20750;-60
2022/09/01 02:07:16;;;;;;;8.10;3.37;;;;;;;;;;5050385;28;20048;-60
2022/09/01 02:09:45;;;;;;;8.17;3.37;;;;;;;;;;5050634;28;20146;-60
2022/09/01 02:12:11;;;;;;;6.17;3.47;;;;;;;;;;5050444;28;20048;-60
2022/09/01 02:14:37;;;;;;;8.70;3.33;;;;;;;;;;5050953;28;20123;-60
2022/09/01 02:17:05;;;;;;;5.23;3.57;;;;;;;;;;5050049;28;20049;-60
2022/09/01 02:19:31;;;;;;;4.37;2.90;;;;;;;;;;5050312;28;20049;-60
2022/09/01 02:21:59;;;;;;;5.47;3.40;;;;;;;;;;5050745;28;20051;-60
2022/09/01 02:24:27;;;;;;;6.97;3.60;;;;;;;;;;5050489;28;20053;-60
2022/09/01 02:26:54;;;;;;;6.30;3.80;;;;;;;;;;5050033;28;20041;-60
2022/09/01 02:29:22;;;;;;;10.30;3.70;;;;;;;;;;5048779;28;20064;-60
2022/09/01 02:31:49;;;;;;;5.80;3.70;;;;;;;;;;5050271;28;20045;-60
2022/09/01 02:34:16;;;;;;;8.07;3.53;;;;;;;;;;5050663;28;20041;-60
2022/09/01 02:36:47;;;;;;;6.33;3.77;;;;;;;;;;5049792;28;20045;-60
2022/09/01 02:39:17;;;;;;;8.23;4.20;;;;;;;;;;5049414;28;20052;-60
2022/09/01 02:41:44;;;;;;;7.50;3.30;;;;;;;;;;5049936;28;20084;-60
2022/09/01 02:44:13;;;;;;;5.87;4.20;;;;;;;;;;5050014;28;20457;-60
2022/09/01 02:46:43;;;;;;;7.03;4.30;;;;;;;;;;5049121;28;20084;-60
2022/09/01 02:49:14;;;;;;;5.27;3.83;;;;;;;;;;5049780;28;20048;-60
2022/09/01 02:51:43;;;;;;;5.13;3.80;;;;;;;;;;5049752;28;20095;-60
2022/09/01 02:54:09;;;;;;;7.10;3.70;;;;;;;;;;5049586;28;20115;-60
2022/09/01 02:56:36;;;;;;;7.50;3.60;;;;;;;;;;5049796;28;20111;-60
2022/09/01 02:59:02;;;;;;;6.90;3.60;;;;;;;;;;5049124;28;20506;-60
2022/09/01 03:01:29;;;;;;;7.63;4.17;;;;;;;;;;5049338;28;20048;-59
2022/09/01 03:03:57;;;;;;;7.93;4.17;;;;;;;;;;5049996;28;20049;-60
2022/09/01 03:06:23;;;;;;;8.30;4.40;;;;;;;;;;5049684;28;20086;-60
2022/09/01 03:08:53;;;;;;;6.57;4.50;;;;;;;;;;5049116;28;20091;-60
2022/09/01 03:11:20;;;;;;;7.53;4.07;;;;;;;;;;5048970;28;20120;-60
2022/09/01 03:13:46;;;;;;;7.57;4.40;;;;;;;;;;5049559;28;20511;-60
2022/09/01 03:16:12;;;;;;;7.20;4.70;;;;;;;;;;5049712;28;20045;-60
2022/09/01 03:18:39;;;;;;;8.17;4.63;;;;;;;;;;5049351;28;20848;-60
2022/09/01 03:21:07;;;;;;;8.17;4.97;;;;;;;;;;5048500;28;20410;-60
2022/09/01 03:23:33;;;;;;;7.03;5.20;;;;;;;;;;5049473;28;20052;-61
2022/09/01 03:26:00;;;;;;;10.10;4.90;;;;;;;;;;5048969;28;20048;-60
2022/09/01 03:28:26;;;;;;;8.23;4.63;;;;;;;;;;5049509;28;20048;-60
2022/09/01 03:30:54;;;;;;;6.13;4.57;;;;;;;;;;5047514;28;20503;-60
2022/09/01 03:33:21;;;;;;;7.20;4.53;;;;;;;;;;5048724;28;20530;-60
2022/09/01 03:35:47;;;;;;;7.50;4.87;;;;;;;;;;5048993;28;20124;-60
2022/09/01 03:38:19;;;;;;;6.90;4.67;;;;;;;;;;5049126;28;20041;-60
2022/09/01 03:40:46;;;;;;;6.30;4.57;;;;;;;;;;5048579;28;20048;-61
2022/09/01 03:43:12;;;;;;;8.17;4.20;;;;;;;;;;5049095;28;20045;-60
2022/09/01 03:45:39;;;;;;;8.20;5.07;;;;;;;;;;5049054;28;20151;-60
2022/09/01 03:48:07;;;;;;;10.77;6.20;;;;;;;;;;5048674;28;20048;-60
2022/09/01 03:50:36;;;;;;;9.23;4.17;;;;;;;;;;5048775;28;20045;-60
2022/09/01 03:53:03;;;;;;;8.43;5.47;;;;;;;;;;5048719;28;20057;-60
2022/09/01 03:55:31;;;;;;;11.17;5.20;;;;;;;;;;5048907;28;20083;-60
2022/09/01 03:57:59;;;;;;;7.10;4.87;;;;;;;;;;5048303;28;20048;-60
2022/09/01 04:00:28;;;;;;;9.67;5.40;;;;;;;;;;5048378;28;20045;-60
2022/09/01 04:02:55;;;;;;;7.87;5.77;;;;;;;;;;5048445;28;20091;-60
2022/09/01 04:05:23;;;;;;;10.67;5.57;;;;;;;;;;5048549;28;20055;-61
2022/09/01 04:07:50;;;;;;;10.27;5.97;;;;;;;;;;5048453;28;20049;-60
2022/09/01 04:10:21;;;;;;;8.77;4.70;;;;;;;;;;5048351;28;20045;-60
2022/09/01 04:12:47;;;;;;;8.83;5.67;;;;;;;;;;5048324;28;20406;-60
2022/09/01 04:15:14;;;;;;;8.50;2.70;;;;;;;;;;5047517;28;20052;-60
2022/09/01 04:20:26;;;;;;;8.87;5.50;;;;;;;;;;5047929;28;20080;-60
2022/09/01 04:22:54;;;;;;;7.83;5.80;;;;;;;;;;5048539;28;20534;-60
2022/09/01 04:25:24;;;;;;;6.50;5.70;;;;;;;;;;5048670;28;20041;-60
2022/09/01 04:27:54;;;;;;;8.30;5.30;;;;;;;;;;5048456;28;21036;-60
2022/09/01 04:30:23;;;;;;;9.90;5.73;;;;;;;;;;5047923;28;20068;-60
2022/09/01 04:32:50;;;;;;;7.60;5.83;;;;;;;;;;5046335;28;20554;-60
2022/09/01 04:35:17;;;;;;;9.20;5.80;;;;;;;;;;5047828;28;20057;-60
2022/09/01 04:37:46;;;;;;;8.00;5.37;;;;;;;;;;5047808;28;20041;-60
2022/09/01 04:40:13;;;;;;;8.37;5.77;;;;;;;;;;5048038;28;20052;-60
2022/09/01 04:42:41;;;;;;;8.80;5.90;;;;;;;;;;5048259;28;20469;-61
2022/09/01 04:45:09;;;;;;;11.83;6.17;;;;;;;;;;5046529;28;20045;-60
2022/09/01 04:47:40;;;;;;;9.00;5.90;;;;;;;;;;5047959;28;20045;-60
2022/09/01 04:50:12;;;;;;;7.37;5.17;;;;;;;;;;5047935;28;20187;-60
2022/09/01 04:52:40;;;;;;;9.70;5.80;;;;;;;;;;5049595;28;20045;-61
2022/09/01 04:55:07;;;;;;;8.07;6.03;;;;;;;;;;5050636;28;20530;-60
2022/09/01 04:57:34;;;;;;;9.07;6.17;;;;;;;;;;5051429;28;20051;-60
2022/09/01 05:00:00;;;;;;;8.17;5.80;;;;;;;;;;5051125;28;20084;-60
2022/09/01 05:02:27;;;;;;;13.27;6.23;;;;;;;;;;5051529;28;20392;-60
2022/09/01 05:04:57;;;;;;;10.57;5.83;;;;;;;;;;5051381;28;20543;-60
2022/09/01 05:07:23;;;;;;;9.50;6.53;;;;;;;;;;5051474;28;20053;-61
2022/09/01 05:09:49;;;;;;;8.70;5.63;;;;;;;;;;5050976;28;20048;-61
2022/09/01 05:12:15;;;;;;;7.60;6.13;;;;;;;;;;5051401;28;20041;-61
2022/09/01 05:14:42;;;;;;;6.17;4.90;;;;;;;;;;5051032;28;20044;-61
2022/09/01 05:17:12;;;;;;;10.10;6.03;;;;;;;;;;5050021;28;20044;-61
2022/09/01 05:19:42;;;;;;;8.23;5.63;;;;;;;;;;5046713;28;20053;-61
2022/09/01 05:22:09;;;;;;;8.87;5.87;;;;;;;;;;5049295;28;20499;-61
2022/09/01 05:24:35;;;;;;;9.03;6.70;;;;;;;;;;5049841;28;20048;-61
2022/09/01 05:27:01;;;;;;;7.60;5.83;;;;;;;;;;5050319;28;20037;-62
2022/09/01 05:29:28;;;;;;;8.93;6.07;;;;;;;;;;5049587;28;20128;-62
2022/09/01 05:31:54;;;;;;;10.00;6.03;;;;;;;;;;5050193;28;20076;-62
2022/09/01 05:34:28;;;;;;;7.60;5.60;;;;;;;;;;5050258;28;20053;-61
2022/09/01 05:36:56;;;;;;;8.90;5.33;;;;;;;;;;5048930;28;20471;-61
2022/09/01 05:39:23;;;;;;;7.83;5.57;;;;;;;;;;5049790;28;20049;-61
2022/09/01 05:41:49;;;;;;;8.60;5.77;;;;;;;;;;5050679;28;20410;-61
2022/09/01 05:44:17;;;;;;;9.87;6.13;;;;;;;;;;5049772;28;20047;-61
2022/09/01 05:46:43;;;;;;;8.87;6.27;;;;;;;;;;5050066;28;20052;-61
2022/09/01 05:49:12;;;;;;;8.87;6.17;;;;;;;;;;5049738;28;20037;-61
2022/09/01 05:51:40;;;;;;;8.87;5.67;;;;;;;;;;5050255;28;20045;-61
2022/09/01 05:54:08;;;;;;;8.50;5.80;;;;;;;;;;5049642;28;20048;-61
2022/09/01 05:56:37;;;;;;;11.00;6.37;;;;;;;;;;5049646;28;20118;-61
2022/09/01 05:59:03;;;;;;;7.27;4.60;;;;;;;;;;5049238;28;20100;-61
2022/09/01 06:01:32;;;;;;;7.47;6.07;;;;;;;;;;5048451;28;20443;-61
2022/09/01 06:04:02;;;;;;;12.23;5.27;;;;;;;;;;5045466;28;20045;-61
2022/09/01 06:06:31;;;;;;;9.53;5.63;;;;;;;;;;5045871;28;20136;-61
2022/09/01 06:08:58;;;;;;;8.47;4.77;;;;;;;;;;5045233;28;20105;-61
2022/09/01 06:11:25;;;;;;;8.93;5.87;;;;;;;;;;5047137;28;20053;-61
2022/09/01 06:13:55;;;;;;;4.63;3.13;;;;;;;;;;5045457;28;20132;-61
2022/09/01 06:16:23;;;;;;;7.43;4.77;;;;;;;;;;5045713;28;20053;-61
2022/09/01 06:18:50;;;;;;;6.93;2.83;;;;;;;;;;5045411;28;20087;-62
2022/09/01 06:21:17;;;;;;;7.50;3.80;;;;;;;;;;5047230;28;20734;-61
2022/09/01 06:23:47;;;;;;;5.97;5.00;;;;;;;;;;5048980;28;20396;-61
2022/09/01 06:26:18;;;;;;;6.37;4.27;;;;;;;;;;5048827;28;20045;-59
2022/09/01 06:28:44;;;;;;;6.33;3.87;;;;;;;;;;5044470;28;20049;-60
2022/09/01 06:31:11;;;;;;;6.30;3.93;;;;;;;;;;5047829;28;20045;-60
2022/09/01 06:33:37;;;;;;;10.10;4.20;;;;;;;;;;5048611;28;20041;-61
2022/09/01 06:36:04;;;;;;;5.30;3.83;;;;;;;;;;5048464;28;20040;-61
2022/09/01 06:38:30;;;;;;;7.67;3.60;;;;;;;;;;5049166;28;20167;-60
2022/09/01 06:41:00;;;;;;;7.30;3.63;;;;;;;;;;5047854;28;20045;-60
2022/09/01 06:43:29;;;;;;;9.17;3.97;;;;;;;;;;5048582;28;20130;-60
2022/09/01 06:45:55;;;;;;;6.63;3.63;;;;;;;;;;5046431;28;20517;-61
2022/09/01 06:48:22;;;;;;;5.57;3.23;;;;;;;;;;5043244;28;20045;-61
2022/09/01 06:50:48;;;;;;;6.47;3.83;;;;;;;;;;5048971;28;20069;-60
2022/09/01 06:53:17;;;;;;;5.73;4.10;;;;;;;;;;5050226;28;20045;-61
2022/09/01 06:55:46;;;;;;;6.27;3.60;;;;;;;;;;5048743;28;20141;-61
2022/09/01 06:58:14;;;;;;;10.73;3.90;;;;;;;;;;5048598;28;20041;-61
2022/09/01 07:00:41;;;;;;;12.53;3.23;;;;;;;;;;5048577;28;20161;-61
2022/09/01 07:03:12;;;;;;;6.30;3.00;;;;;;;;;;5046080;28;20063;-61
2022/09/01 07:05:41;;;;;;;5.70;3.70;;;;;;;;;;5046279;28;20098;-61
2022/09/01 07:08:09;;;;;;;6.03;2.50;;;;;;;;;;5045989;28;20071;-61
2022/09/01 07:10:39;;;;;;;4.30;2.87;;;;;;;;;;5043541;28;20132;-60
2022/09/01 07:13:08;;;;;;;8.83;3.30;;;;;;;;;;5045493;28;20476;-60
2022/09/01 07:15:41;;;;;;;6.17;2.37;;;;;;;;;;5043878;28;20064;-60
2022/09/01 07:18:09;;;;;;;5.67;2.60;;;;;;;;;;5045752;28;20041;-60
2022/09/01 07:20:37;;;;;;;6.50;3.10;;;;;;;;;;5044649;28;20307;-60
2022/09/01 07:23:04;;;;;;;5.83;2.80;;;;;;;;;;5047540;28;20839;-60
2022/09/01 07:25:31;;;;;;;7.00;2.70;;;;;;;;;;5047622;28;20068;-60
2022/09/01 07:27:59;;;;;;;5.10;2.30;;;;;;;;;;5047126;28;20120;-60
2022/09/01 07:30:25;;;;;;;7.27;2.80;;;;;;;;;;5046179;28;20102;-60
2022/09/01 07:32:51;;;;;;;5.43;2.20;;;;;;;;;;5047044;28;20057;-61
2022/09/01 07:35:21;;;;;;;8.13;2.77;;;;;;;;;;5047638;28;20088;-61
2022/09/01 07:37:50;;;;;;;5.97;2.53;;;;;;;;;;5044583;28;20045;-62
2022/09/01 07:40:19;;;;;;;4.03;2.27;;;;;;;;;;5045986;28;20041;-61
2022/09/01 07:42:53;;;;;;;6.00;2.40;;;;;;;;;;5047055;28;20549;-61
2022/09/01 07:45:19;;;;;;;3.97;2.57;;;;;;;;;;5047360;28;20036;-61
2022/09/01 07:47:45;;;;;;;7.53;2.33;;;;;;;;;;5045299;28;22211;-60
2022/09/01 07:50:14;;;;;;;7.33;2.90;;;;;;;;;;5044775;28;20182;-61
2022/09/01 07:52:48;;;;;;;5.87;2.37;;;;;;;;;;5046221;28;20392;-60
2022/09/01 07:55:15;;;;;;;5.00;2.23;;;;;;;;;;5046412;28;20045;-61
2022/09/01 07:57:44;;;;;;;4.23;1.80;;;;;;;;;;5047444;28;20048;-61
2022/09/01 08:00:11;;;;;;;10.43;3.57;;;;;;;;;;5047641;28;20053;-61
2022/09/01 08:02:38;;;;;;;7.63;2.37;;;;;;;;;;5046775;28;20037;-61
2022/09/01 08:05:08;;;;;;;3.17;1.60;;;;;;;;;;5046553;28;20474;-61
2022/09/01 08:07:37;;;;;;;3.63;1.70;;;;;;;;;;5047543;28;20037;-61
2022/09/01 08:10:05;;;;;;;5.13;2.13;;;;;;;;;;5047001;28;20049;-61
2022/09/01 08:12:31;;;;;;;3.90;1.73;;;;;;;;;;5045315;28;20124;-61
2022/09/01 08:14:57;;;;;;;6.57;1.80;;;;;;;;;;5047192;28;20095;-61
2022/09/01 08:17:23;;;;;;;7.87;1.60;;;;;;;;;;5046689;28;20041;-61
2022/09/01 08:19:49;;;;;;;5.27;2.20;;;;;;;;;;5046333;28;20549;-61
2022/09/01 08:22:16;;;;;;;7.47;2.63;;;;;;;;;;5046956;28;20495;-62
2022/09/01 08:24:42;;;;;;;4.80;1.80;;;;;;;;;;5046381;28;20124;-61
2022/09/01 08:27:08;;;;;;;6.57;1.60;;;;;;;;;;5047048;28;20367;-62
2022/09/01 08:29:34;;;;;;;8.13;1.60;;;;;;;;;;5048481;28;20140;-61
2022/09/01 08:32:01;;;;;;;5.23;1.30;;;;;;;;;;5050846;28;20049;-61
2022/09/01 08:34:27;;;;;;;3.30;1.30;;;;;;;;;;5048787;28;20112;-61
2022/09/01 08:36:53;;;;;;;3.27;1.40;;;;;;;;;;5051138;28;20041;-61
2022/09/01 08:39:19;;;;;;;3.33;1.10;;;;;;;;;;5051329;28;20044;-61
2022/09/01 08:42:04;;;;;;;4.17;1.30;;;;;;;;;;5051394;28;20763;-61
2022/09/01 08:44:36;;;;;;;6.50;0.90;;;;;;;;;;5050665;28;20060;-61
2022/09/01 08:47:07;;;;;;;4.45;1.58;;;;;;;;;;5049427;28;20379;-61
2022/09/01 08:49:35;;;;;;;2.63;1.10;;;;;;;;;;5050939;28;20041;-62
2022/09/01 08:52:13;;;;;;;2.73;1.00;;;;;;;;;;5050808;28;20041;-61
2022/09/01 08:54:44;;;;;;;4.43;1.70;;;;;;;;;;5048392;28;20063;-61
2022/09/01 08:57:15;;;;;;;4.20;1.30;;;;;;;;;;5049230;28;20052;-61
2022/09/01 08:59:41;;;;;;;2.17;0.90;;;;;;;;;;5051083;28;20049;-61
2022/09/01 09:02:16;;;;;;;4.37;1.37;;;;;;;;;;5049630;28;20076;-61
2022/09/01 09:04:50;;;;;;;2.57;0.90;;;;;;;;;;5049847;28;20041;-61
2022/09/01 09:07:16;;;;;;;3.77;1.20;;;;;;;;;;5051100;28;20052;-61
2022/09/01 09:10:02;;;;;;;1.67;0.63;;;;;;;;;;5050758;28;20041;-61
2022/09/01 09:12:35;;;;;;;2.50;0.70;;;;;;;;;;5049756;28;20064;-61
2022/09/01 09:15:24;;;;;;;2.40;0.80;;;;;;;;;;5050216;28;20455;-61
2022/09/01 09:17:58;;;;;;;4.33;0.93;;;;;;;;;;5054177;28;20205;-61
2022/09/01 09:20:24;;;;;;;2.17;0.63;;;;;;;;;;5048591;28;20049;-62
2022/09/01 09:22:50;;;;;;;5.83;1.00;;;;;;;;;;5050508;28;20380;-61
2022/09/01 09:25:17;;;;;;;2.80;1.10;;;;;;;;;;5050889;28;20041;-62
2022/09/01 09:27:45;;;;;;;2.50;1.10;;;;;;;;;;5050566;28;20045;-62
2022/09/01 09:30:12;;;;;;;2.73;0.97;;;;;;;;;;5049370;28;20461;-61
2022/09/01 09:33:03;;;;;;;5.15;0.90;;;;;;;;;;5049415;28;20048;-61
2022/09/01 09:35:32;;;;;;;5.90;0.90;;;;;;;;;;5050353;28;20116;-61
2022/09/01 09:38:27;;;;;;;1.77;0.70;;;;;;;;;;5048514;28;20045;-62
2022/09/01 09:40:59;;;;;;;2.00;0.80;;;;;;;;;;5051948;28;20056;-62
2022/09/01 09:43:26;;;;;;;3.95;0.98;;;;;;;;;;5049720;28;20048;-62
2022/09/01 09:46:12;;;;;;;2.53;1.05;;;;;;;;;;5050009;28;20048;-62
2022/09/01 09:48:38;;;;;;;1.42;0.57;;;;;;;;;;5049957;28;20448;-62
2022/09/01 09:51:19;;;;;;;2.20;0.93;;;;;;;;;;5049512;28;20041;-62
2022/09/01 09:53:45;;;;;;;3.75;0.73;;;;;;;;;;5047522;28;20103;-62
2022/09/01 09:56:18;;;;;;;1.48;0.60;;;;;;;;;;5048392;28;20049;-62
2022/09/01 09:58:45;;;;;;;2.13;0.80;;;;;;;;;;5048998;28;20049;-62
2022/09/01 10:01:16;;;;;;;2.90;0.80;;;;;;;;;;5051639;28;20053;-62
2022/09/01 10:03:49;;;;;;;1.88;0.60;;;;;;;;;;5050168;28;20106;-62
2022/09/01 10:06:32;;;;;;;3.90;1.00;;;;;;;;;;5051457;28;20128;-62
2022/09/01 10:08:58;;;;;;;1.77;0.60;;;;;;;;;;5045482;28;20493;-62
2022/09/01 10:11:51;;;;;;;3.78;0.90;;;;;;;;;;5046010;28;20908;-62
2022/09/01 10:14:20;;;;;;;2.10;0.60;;;;;;;;;;5046517;28;20418;-62
2022/09/01 10:16:47;;;;;;;2.33;0.77;;;;;;;;;;5049007;28;20037;-62
2022/09/01 10:19:14;;;;;;;2.80;1.10;;;;;;;;;;5050983;28;20049;-62
2022/09/01 10:21:41;;;;;;;3.28;0.80;;;;;;;;;;5048676;28;20060;-62
2022/09/01 10:24:26;;;;;;;5.47;0.70;;;;;;;;;;5048084;28;20048;-62
2022/09/01 10:26:54;;;;;;;5.13;0.70;;;;;;;;;;5048519;28;20114;-62
2022/09/01 10:29:39;;;;;;;1.45;0.60;;;;;;;;;;5049762;28;20784;-62
2022/09/01 10:32:10;;;;;;;1.25;0.60;;;;;;;;;;5046760;28;20049;-62
2022/09/01 10:34:37;;;;;;;2.72;0.95;;;;;;;;;;5048475;28;20041;-62
2022/09/01 10:37:05;;;;;;;2.53;0.80;;;;;;;;;;5046772;28;20091;-62
2022/09/01 10:39:31;;;;;;;2.92;0.68;;;;;;;;;;5048837;28;20136;-62
2022/09/01 10:42:06;;;;;;;4.07;0.85;;;;;;;;;;5046886;28;20044;-62
2022/09/01 10:44:33;;;;;;;3.03;0.65;;;;;;;;;;5030240;28;20357;-62
2022/09/01 10:47:08;;;;;;;2.42;0.60;;;;;;;;;;5045816;28;20044;-62
2022/09/01 10:49:34;;;;;;;1.30;0.50;;;;;;;;;;5047163;28;20048;-62
2022/09/01 10:52:00;;;;;;;3.58;0.82;;;;;;;;;;5041373;28;20544;-62
2022/09/01 10:54:50;;;;;;;3.63;0.82;;;;;;;;;;5030049;28;20586;-62
2022/09/01 10:57:36;;;;;;;2.90;0.60;;;;;;;;;;5039717;28;20045;-62
2022/09/01 11:00:20;;;;;;;2.42;0.70;;;;;;;;;;5041480;28;20084;-62
2022/09/01 11:03:04;;;;;;;0.63;0.30;;;;;;;;;;5048774;28;20427;-62
2022/09/01 11:05:50;;;;;;;2.28;0.50;;;;;;;;;;5048973;28;20186;-62
2022/09/01 11:08:21;;;;;;;1.05;0.50;;;;;;;;;;5048487;28;20045;-62
2022/09/01 11:11:01;;;;;;;2.40;0.60;;;;;;;;;;5105626;27;20346;-62
2022/09/01 11:13:47;;;;;;;2.25;0.82;;;;;;;;;;5105460;28;20048;-61
2022/09/01 11:16:22;;;;;;;1.55;0.68;;;;;;;;;;5105411;28;20044;-62
2022/09/01 11:18:49;;;;;;;1.75;0.60;;;;;;;;;;5106280;28;20048;-62
2022/09/01 11:21:16;;;;;;;2.50;0.82;;;;;;;;;;5102914;28;20051;-62
2022/09/01 11:23:45;;;;;;;2.33;0.80;;;;;;;;;;5104952;28;20040;-61
2022/09/01 11:26:29;;;;;;;2.17;0.60;;;;;;;;;;5105295;28;20048;-62
2022/09/01 11:28:55;;;;;;;2.42;0.68;;;;;;;;;;5105408;28;20580;-62
2022/09/01 11:31:30;;;;;;;0.93;0.57;;;;;;;;;;5105689;28;20181;-61
2022/09/01 11:34:09;;;;;;;2.67;0.60;;;;;;;;;;5106259;28;20055;-62
2022/09/01 11:36:37;;;;;;;1.10;0.50;;;;;;;;;;5105504;28;20566;-62
2022/09/01 11:39:03;;;;;;;3.17;0.73;;;;;;;;;;5104468;28;20558;-62
2022/09/01 11:41:32;;;;;;;1.30;0.70;;;;;;;;;;5104668;28;20520;-62
2022/09/01 11:43:59;;;;;;;1.60;0.73;;;;;;;;;;5104796;28;20040;-62
2022/09/01 11:46:27;;;;;;;3.67;0.60;;;;;;;;;;5105372;28;20104;-62
2022/09/01 11:48:54;;;;;;;2.20;0.65;;;;;;;;;;5087816;28;20517;-62
2022/09/01 11:51:20;;;;;;;2.47;0.60;;;;;;;;;;5084006;28;20040;-62
2022/09/01 11:53:46;;;;;;;2.60;0.70;;;;;;;;;;5084920;28;20044;-62
2022/09/01 11:56:14;;;;;;;1.98;0.60;;;;;;;;;;5085134;28;20052;-62
2022/09/01 11:58:41;;;;;;;2.33;0.52;;;;;;;;;;5084990;28;20391;-62
2022/09/01 12:01:14;;;;;;;2.42;0.55;;;;;;;;;;5084429;28;20040;-62
2022/09/01 12:03:41;;;;;;;1.27;0.70;;;;;;;;;;5084500;28;20040;-62
2022/09/01 12:06:08;;;;;;;1.30;0.50;;;;;;;;;;5083885;28;20540;-62
2022/09/01 12:08:39;;;;;;;1.40;0.70;;;;;;;;;;5084367;28;20044;-62
2022/09/01 12:11:10;;;;;;;3.60;0.75;;;;;;;;;;5084364;28;20060;-62
2022/09/01 12:13:37;;;;;;;3.05;0.60;;;;;;;;;;5084661;28;20084;-62
2022/09/01 12:16:07;;;;;;;2.63;0.43;;;;;;;;;;5084678;28;20406;-62
2022/09/01 12:18:37;;;;;;;2.83;0.85;;;;;;;;;;5084964;28;20036;-62
2022/09/01 12:21:06;;;;;;;1.77;0.60;;;;;;;;;;5077821;28;20455;-62
2022/09/01 12:23:33;;;;;;;1.92;0.55;;;;;;;;;;5071192;28;20040;-62
2022/09/01 12:26:00;;;;;;;2.90;0.77;;;;;;;;;;5070997;28;20131;-62
2022/09/01 12:28:32;;;;;;;1.50;0.60;;;;;;;;;;5070209;28;20491;-62
2022/09/01 12:31:03;;;;;;;1.88;0.55;;;;;;;;;;5070879;28;20071;-62
2022/09/01 12:33:29;;;;;;;6.38;0.75;;;;;;;;;;5070370;28;20090;-62
2022/09/01 12:36:14;;;;;;;2.08;0.80;;;;;;;;;;5070606;28;20076;-62
2022/09/01 12:38:40;;;;;;;3.25;0.70;;;;;;;;;;5070577;28;20515;-62
2022/09/01 12:41:22;;;;;;;1.70;0.50;;;;;;;;;;5070696;28;20051;-62
2022/09/01 12:43:48;;;;;;;3.72;0.90;;;;;;;;;;5070437;28;20481;-62
2022/09/01 12:46:34;;;;;;;3.83;0.70;;;;;;;;;;5070373;28;20041;-62
2022/09/01 12:49:24;;;;;;;3.75;0.60;;;;;;;;;;5070170;28;20047;-62
2022/09/01 12:51:51;;;;;;;3.45;0.80;;;;;;;;;;5070272;28;20132;-62
2022/09/01 12:54:24;;;;;;;3.67;1.00;;;;;;;;;;5070525;28;20049;-61
2022/09/01 12:56:51;;;;;;;4.32;0.60;;;;;;;;;;5069853;28;20094;-62
2022/09/01 12:59:22;;;;;;;3.63;1.05;;;;;;;;;;5070346;28;20075;-62
2022/09/01 13:01:48;;;;;;;4.47;0.80;;;;;;;;;;5070453;28;20416;-62
2022/09/01 13:04:16;;;;;;;1.73;0.60;;;;;;;;;;5070121;28;20079;-61
2022/09/01 13:06:42;;;;;;;1.70;0.57;;;;;;;;;;5069572;28;20085;-62
2022/09/01 13:09:08;;;;;;;1.95;0.40;;;;;;;;;;5069773;28;20056;-62
2022/09/01 13:11:35;;;;;;;5.00;0.60;;;;;;;;;;5070040;28;20087;-61
2022/09/01 13:14:01;;;;;;;3.53;0.75;;;;;;;;;;5069983;28;20053;-62
2022/09/01 13:16:27;;;;;;;1.48;0.47;;;;;;;;;;5069889;28;20037;-62
2022/09/01 13:18:53;;;;;;;2.40;0.50;;;;;;;;;;5069974;28;20060;-62
2022/09/01 13:21:19;;;;;;;1.83;0.65;;;;;;;;;;5066459;28;20415;-62
2022/09/01 13:23:45;;;;;;;1.48;0.60;;;;;;;;;;5060149;28;20041;-62
2022/09/01 13:26:11;;;;;;;3.20;0.80;;;;;;;;;;5059400;28;20106;-62
2022/09/01 13:28:37;;;;;;;1.15;0.55;;;;;;;;;;5062629;28;20123;-62
2022/09/01 13:31:04;;;;;;;2.38;0.60;;;;;;;;;;5069833;28;20073;-62
2022/09/01 13:33:30;;;;;;;3.85;0.60;;;;;;;;;;5068558;28;20044;-62
2022/09/01 13:35:56;;;;;;;2.60;0.60;;;;;;;;;;5069071;28;20550;-62
2022/09/01 13:38:22;;;;;;;4.18;0.70;;;;;;;;;;5069708;28;20178;-61
2022/09/01 13:40:49;;;;;;;5.15;0.60;;;;;;;;;;5068732;28;20087;-62
2022/09/01 13:43:16;;;;;;;1.50;0.50;;;;;;;;;;5069855;28;20045;-62
2022/09/01 13:45:42;;;;;;;0.80;0.50;;;;;;;;;;5068491;28;20396;-62
2022/09/01 13:48:09;;;;;;;1.88;0.60;;;;;;;;;;5068324;28;20523;-62
2022/09/01 13:50:36;;;;;;;3.80;0.50;;;;;;;;;;5069648;28;20052;-62
2022/09/01 13:53:02;;;;;;;2.58;0.45;;;;;;;;;;5069490;28;20043;-62
2022/09/01 13:55:29;;;;;;;3.30;0.80;;;;;;;;;;5069462;28;20044;-62
2022/09/01 13:57:57;;;;;;;4.85;0.63;;;;;;;;;;5069611;28;20040;-62
2022/09/01 14:00:24;;;;;;;3.33;0.77;;;;;;;;;;5069550;28;20514;-62
2022/09/01 14:02:52;;;;;;;1.13;0.40;;;;;;;;;;5068861;28;20486;-62
2022/09/01 14:05:19;;;;;;;2.60;0.70;;;;;;;;;;5069503;28;20040;-62
2022/09/01 14:07:45;;;;;;;3.17;0.85;;;;;;;;;;5069185;28;20552;-62
2022/09/01 14:10:13;;;;;;;4.07;0.60;;;;;;;;;;5069338;28;20056;-63
2022/09/01 14:12:40;;;;;;;2.22;0.70;;;;;;;;;;5069431;28;20049;-62
2022/09/01 14:15:07;;;;;;;2.38;0.70;;;;;;;;;;5068636;28;20431;-62
2022/09/01 14:17:34;;;;;;;2.92;0.63;;;;;;;;;;5069418;28;20122;-62
2022/09/01 14:20:00;;;;;;;2.25;0.65;;;;;;;;;;5068641;28;20048;-62
2022/09/01 14:22:26;;;;;;;2.97;0.70;;;;;;;;;;5069115;28;20052;-62
2022/09/01 14:24:52;;;;;;;1.77;0.80;;;;;;;;;;5068731;28;20119;-62
2022/09/01 14:27:19;;;;;;;3.53;0.77;;;;;;;;;;5069035;28;20123;-62
2022/09/01 14:29:49;;;;;;;2.45;0.60;;;;;;;;;;5067533;28;20060;-62
2022/09/01 14:32:16;;;;;;;2.22;0.80;;;;;;;;;;5068907;28;20040;-62
2022/09/01 14:34:42;;;;;;;1.55;0.70;;;;;;;;;;5069042;28;20047;-62
2022/09/01 14:37:08;;;;;;;1.25;0.50;;;;;;;;;;5068516;28;20044;-62
2022/09/01 14:39:34;;;;;;;2.15;0.75;;;;;;;;;;5067829;28;20131;-62
2022/09/01 14:42:00;;;;;;;1.88;0.60;;;;;;;;;;5066892;28;20121;-62
2022/09/01 14:44:26;;;;;;;1.70;0.80;;;;;;;;;;5066976;28;20368;-62
2022/09/01 14:46:53;;;;;;;2.60;0.60;;;;;;;;;;5067670;28;20090;-62
2022/09/01 14:49:19;;;;;;;3.45;0.68;;;;;;;;;;5067381;28;20101;-63
2022/09/01 14:51:46;;;;;;;3.25;0.68;;;;;;;;;;5067247;28;20056;-62
2022/09/01 14:54:12;;;;;;;1.30;0.60;;;;;;;;;;5067857;28;20037;-62
2022/09/01 14:56:38;;;;;;;1.60;0.90;;;;;;;;;;5066672;28;20098;-62
2022/09/01 14:59:05;;;;;;;1.15;0.63;;;;;;;;;;5067712;28;20421;-62
2022/09/01 15:01:31;;;;;;;2.13;0.47;;;;;;;;;;5067703;28;20487;-62